Time;durP1;ratioP1;P1;durP2;ratioP2;P2;SDS_P1;SDS_P2;PMS_P1;PMS_P2;Temp;Humidity;BMP_temperature;BMP_pressure;BME280_temperature;BME280_humidity;BME280_pressure;Samples;Min_cycle;Max_cycle;Signal;HPM_P1;HPM_P2
2021/04/21 00:01:50;;;;;;;8.07;5.70;;;;;;;12.75;37.59;101450.16;6181164;28;20317;-53
2021/04/21 00:05:12;;;;;;;12.57;7.90;;;;;;;12.62;37.87;101454.63;6181955;28;20321;-53
2021/04/21 00:08:32;;;;;;;7.13;5.50;;;;;;;12.75;37.84;101453.63;6176257;28;20238;-54
2021/04/21 00:11:54;;;;;;;6.70;5.87;;;;;;;12.72;37.83;101448.44;6179771;28;20250;-51
2021/04/21 00:15:20;;;;;;;7.50;6.20;;;;;;;12.60;38.58;101448.53;6181469;28;20325;-55
2021/04/21 00:18:44;;;;;;;8.70;5.70;;;;;;;12.41;39.01;101440.81;6173067;28;20230;-54
2021/04/21 00:22:08;;;;;;;8.00;6.50;;;;;;;12.50;39.22;101441.63;6180713;28;20237;-56
2021/04/21 00:25:31;;;;;;;8.40;6.20;;;;;;;12.63;38.74;101448.50;6185144;28;20231;-54
2021/04/21 00:28:54;;;;;;;9.00;6.07;;;;;;;12.47;39.29;101444.28;6175775;28;20576;-54
2021/04/21 00:32:17;;;;;;;13.40;6.77;;;;;;;12.63;38.98;101437.19;6180216;28;20238;-54
2021/04/21 00:35:40;;;;;;;9.73;7.27;;;;;;;12.55;39.00;101435.50;6178634;28;20507;-55
2021/04/21 00:39:03;;;;;;;7.10;6.37;;;;;;;12.19;40.04;101441.81;6187385;28;20241;-57
2021/04/21 00:42:32;;;;;;;7.07;6.37;;;;;;;12.28;40.05;101436.56;6177558;28;20238;-51
2021/04/21 00:46:09;;;;;;;7.93;6.70;;;;;;;12.27;40.13;101427.00;6185139;28;20631;-52
2021/04/21 00:49:46;;;;;;;8.30;6.97;;;;;;;12.14;40.90;101430.56;6192465;28;20237;-55
2021/04/21 00:53:14;;;;;;;7.43;6.73;;;;;;;12.04;41.30;101434.06;6186800;28;20249;-54
2021/04/21 00:56:47;;;;;;;7.93;6.70;;;;;;;12.07;41.56;101432.31;6178140;28;20364;-56
2021/04/21 01:00:10;;;;;;;7.30;6.60;;;;;;;12.19;41.23;101428.78;6177234;28;20238;-52
2021/04/21 01:03:44;;;;;;;8.47;7.53;;;;;;;12.01;42.20;101427.13;6175573;28;20230;-54
2021/04/21 01:07:07;;;;;;;7.47;6.73;;;;;;;12.01;41.68;101429.75;6194755;28;20317;-54
2021/04/21 01:10:33;;;;;;;8.20;6.20;;;;;;;11.74;42.46;101431.56;6185647;28;20229;-54
2021/04/21 01:13:55;;;;;;;10.47;7.40;;;;;;;11.91;42.00;101431.53;6182694;28;20261;-53
2021/04/21 01:17:18;;;;;;;9.07;7.33;;;;;;;11.67;43.29;101432.50;6187944;28;20238;-53
2021/04/21 01:20:47;;;;;;;9.30;7.00;;;;;;;11.89;41.94;101430.69;6188094;28;20607;-51
2021/04/21 01:24:19;;;;;;;8.80;6.80;;;;;;;11.67;42.99;101429.00;6171952;28;20236;-53
2021/04/21 01:27:47;;;;;;;21.30;8.00;;;;;;;10.83;44.85;101426.56;6189808;28;20230;-54
2021/04/21 01:31:12;;;;;;;10.13;6.67;;;;;;;11.49;43.97;101430.78;6188059;28;20253;-51
2021/04/21 01:34:37;;;;;;;7.63;6.93;;;;;;;11.41;43.60;101427.34;6190967;28;20233;-56
2021/04/21 01:38:01;;;;;;;10.10;7.27;;;;;;;11.32;44.48;101422.16;6190929;28;20241;-54
2021/04/21 01:41:26;;;;;;;8.23;7.43;;;;;;;11.49;43.92;101424.72;6189937;28;20209;-51
2021/04/21 01:44:49;;;;;;;8.10;7.10;;;;;;;11.45;44.03;101423.00;6185038;28;20237;-54
2021/04/21 01:48:16;;;;;;;9.23;7.53;;;;;;;11.42;43.34;101423.88;6192322;28;20233;-51
2021/04/21 01:51:41;;;;;;;9.30;7.00;;;;;;;11.29;43.82;101427.38;6187547;28;20261;-57
2021/04/21 01:55:08;;;;;;;10.47;7.47;;;;;;;11.28;43.94;101416.06;6187996;28;20324;-58
2021/04/21 01:58:33;;;;;;;9.50;6.77;;;;;;;11.06;44.62;101414.41;6197718;28;20238;-56
2021/04/21 02:01:59;;;;;;;13.33;7.07;;;;;;;11.31;43.92;101410.00;6183947;28;20655;-50
2021/04/21 02:05:27;;;;;;;10.77;7.83;;;;;;;11.20;43.65;101413.47;6191963;28;20229;-56
2021/04/21 02:09:00;;;;;;;8.33;6.83;;;;;;;11.18;43.73;101419.56;6185224;28;20237;-55
2021/04/21 02:12:45;;;;;;;9.50;7.03;;;;;;;11.23;43.22;101416.09;6180600;28;20238;-53
2021/04/21 02:16:19;;;;;;;9.77;6.67;;;;;;;11.17;43.17;101423.06;6181074;28;20243;-55
2021/04/21 02:19:46;;;;;;;11.13;7.33;;;;;;;11.29;42.96;101422.19;6178537;28;20233;-56
2021/04/21 02:23:12;;;;;;;7.83;6.90;;;;;;;10.98;43.64;101422.22;6177811;28;20241;-50
2021/04/21 02:26:38;;;;;;;10.63;7.63;;;;;;;11.00;43.79;101421.34;6189610;28;20540;-51
2021/04/21 02:30:04;;;;;;;9.40;7.43;;;;;;;11.03;43.45;101412.63;6184556;28;20230;-56
2021/04/21 02:33:33;;;;;;;7.57;6.67;;;;;;;11.09;43.26;101414.38;6180571;28;20524;-55
2021/04/21 02:37:05;;;;;;;8.63;6.23;;;;;;;10.92;43.78;101415.28;6191163;28;20245;-54
2021/04/21 02:40:36;;;;;;;8.03;7.23;;;;;;;10.74;43.89;101421.38;6178419;28;20238;-55
2021/04/21 02:44:07;;;;;;;7.80;6.90;;;;;;;10.84;43.81;101409.22;6189059;28;20602;-54
2021/04/21 02:47:33;;;;;;;8.80;7.00;;;;;;;11.10;43.30;101411.75;6177209;28;20249;-54
2021/04/21 02:51:03;;;;;;;9.27;8.07;;;;;;;10.88;43.69;101407.47;6178495;28;20317;-52
2021/04/21 02:54:35;;;;;;;10.77;7.00;;;;;;;10.73;44.09;101422.22;6177447;28;20234;-55
2021/04/21 02:58:04;;;;;;;8.50;6.70;;;;;;;10.56;44.84;101418.75;6178097;28;20241;-54
2021/04/21 03:01:32;;;;;;;9.77;8.17;;;;;;;10.68;44.17;101418.75;6182681;28;20233;-54
2021/04/21 03:05:01;;;;;;;9.07;7.57;;;;;;;10.48;46.15;101418.75;6185894;28;20250;-54
2021/04/21 03:08:27;;;;;;;17.10;14.17;;;;;;;10.71;45.74;101421.34;6185669;28;20237;-55
2021/04/21 03:11:50;;;;;;;14.87;13.27;;;;;;;10.73;45.20;101421.38;6176619;28;20667;-54
2021/04/21 03:15:16;;;;;;;11.47;9.23;;;;;;;10.74;44.99;101423.97;6167844;28;20666;-56
2021/04/21 03:18:40;;;;;;;8.63;7.77;;;;;;;10.90;44.49;101408.34;6190383;28;20241;-53
2021/04/21 03:22:05;;;;;;;11.07;8.50;;;;;;;10.50;45.50;101416.16;6183109;28;20230;-54
2021/04/21 03:25:34;;;;;;;8.97;7.33;;;;;;;10.42;45.58;101409.19;6179669;28;20245;-53
2021/04/21 03:29:00;;;;;;;10.60;7.67;;;;;;;10.57;45.13;101410.09;6183318;28;20600;-54
2021/04/21 03:32:23;;;;;;;9.80;7.17;;;;;;;10.58;44.85;101411.81;6181540;28;20745;-53
2021/04/21 03:35:49;;;;;;;10.30;8.63;;;;;;;10.21;45.59;101409.13;6182157;28;20890;-53
2021/04/21 03:39:10;;;;;;;9.23;8.30;;;;;;;10.39;45.37;101409.19;6183329;28;20660;-57
2021/04/21 03:42:32;;;;;;;10.33;9.00;;;;;;;10.28;46.56;101410.03;6184557;28;20242;-52
2021/04/21 03:45:53;;;;;;;9.50;8.33;;;;;;;10.40;46.12;101408.31;6183286;28;20269;-48
2021/04/21 03:49:15;;;;;;;13.23;8.67;;;;;;;10.56;45.14;101403.13;6188038;28;20264;-55
2021/04/21 03:52:40;;;;;;;10.37;7.90;;;;;;;10.28;46.61;101403.06;6187138;28;20242;-56
2021/04/21 03:56:02;;;;;;;8.17;7.33;;;;;;;10.04;46.92;101403.88;6180849;28;20226;-55
2021/04/21 03:59:23;;;;;;;8.67;7.43;;;;;;;10.40;45.97;101407.47;6189135;28;20511;-56
2021/04/21 04:02:52;;;;;;;12.77;8.90;;;;;;;10.33;46.43;101401.38;6180322;28;20218;-50
2021/04/21 04:06:16;;;;;;;12.60;9.47;;;;;;;10.14;46.92;101399.56;6185182;28;20597;-54
2021/04/21 04:09:38;;;;;;;8.93;8.03;;;;;;;10.20;46.60;101404.81;6180357;28;20237;-53
2021/04/21 04:13:01;;;;;;;9.57;8.50;;;;;;;10.36;46.54;101400.50;6181754;28;20321;-55
2021/04/21 04:16:23;;;;;;;11.17;8.80;;;;;;;10.24;46.87;101401.34;6186936;28;20258;-52
2021/04/21 04:19:45;;;;;;;9.73;8.63;;;;;;;10.05;47.42;101408.22;6185549;28;20254;-53
2021/04/21 04:23:07;;;;;;;9.97;8.30;;;;;;;10.08;48.03;101407.34;6181600;28;20246;-54
2021/04/21 04:26:29;;;;;;;13.43;10.10;;;;;;;10.28;47.39;101399.59;6178427;28;20221;-56
2021/04/21 04:29:51;;;;;;;15.43;9.33;;;;;;;10.30;47.63;101401.38;6173524;28;20238;-54
2021/04/21 04:33:15;;;;;;;14.83;8.77;;;;;;;10.11;48.46;101407.38;6184033;28;22054;-53
2021/04/21 04:36:40;;;;;;;13.47;10.03;;;;;;;10.11;48.30;101402.16;6182839;28;20245;-56
2021/04/21 04:40:02;;;;;;;14.10;11.03;;;;;;;10.08;48.06;101408.25;6181118;28;20235;-53
2021/04/21 04:43:23;;;;;;;12.00;9.93;;;;;;;10.40;47.91;101405.72;6183672;28;20230;-55
2021/04/21 04:46:49;;;;;;;11.97;10.50;;;;;;;10.21;48.49;101409.97;6186248;28;20249;-56
2021/04/21 04:50:11;;;;;;;11.43;9.83;;;;;;;10.36;48.26;101405.72;6192226;28;20241;-57
2021/04/21 04:53:35;;;;;;;10.03;9.03;;;;;;;10.37;48.37;101397.91;6172559;28;20695;-54
2021/04/21 04:56:56;;;;;;;10.87;9.43;;;;;;;10.53;48.24;101403.13;6181967;28;20494;-52
2021/04/21 05:00:19;;;;;;;13.87;10.30;;;;;;;10.70;47.56;101406.63;6180383;28;20237;-53
2021/04/21 05:03:44;;;;;;;11.03;9.80;;;;;;;10.76;47.54;101411.81;6161956;28;20234;-51
2021/04/21 05:07:07;;;;;;;14.50;10.33;;;;;;;10.35;48.88;101420.47;6183534;28;21027;-55
2021/04/21 05:10:32;;;;;;;13.13;9.77;;;;;;;10.71;47.83;101417.91;6173850;28;20511;-55
2021/04/21 05:13:53;;;;;;;14.30;11.77;;;;;;;10.84;47.69;101407.47;6187376;28;20349;-52
2021/04/21 05:18:07;;;;;;;13.53;9.80;;;;;;;10.65;48.28;101416.16;6184069;28;20234;-53
2021/04/21 05:22:06;;;;;;;13.83;10.83;;;;;;;10.79;48.46;101417.00;6189450;28;20237;-52
2021/04/21 05:26:07;;;;;;;11.67;10.40;;;;;;;10.90;48.45;101413.56;6167849;28;20233;-55
2021/04/21 05:30:00;;;;;;;14.80;10.73;;;;;;;11.16;47.51;101419.56;6180057;28;20241;-49
2021/04/21 05:33:59;;;;;;;13.83;10.43;;;;;;;11.38;47.10;101427.34;6180230;28;20230;-56
2021/04/21 05:37:58;;;;;;;11.90;10.30;;;;;;;11.39;47.38;101429.94;6178181;28;20233;-56
2021/04/21 05:42:14;;;;;;;12.20;10.23;;;;;;;11.41;47.41;101429.94;6180048;28;20312;-55
2021/04/21 05:46:06;;;;;;;11.70;10.43;;;;;;;11.67;47.32;101426.38;6184798;28;20599;-56
2021/04/21 05:50:09;;;;;;;11.53;10.27;;;;;;;11.60;47.51;101434.25;6172131;28;20226;-57
2021/04/21 05:54:11;;;;;;;13.40;11.33;;;;;;;11.68;47.60;101425.53;6173378;28;20260;-55
2021/04/21 05:58:09;;;;;;;11.87;10.67;;;;;;;12.06;46.53;101422.78;6177454;28;20691;-54
2021/04/21 06:01:34;;;;;;;17.07;11.47;;;;;;;11.43;48.37;101425.59;6186489;28;20229;-57
2021/04/21 06:05:04;;;;;;;13.60;10.70;;;;;;;11.66;47.57;101427.28;6179624;28;20226;-56
2021/04/21 06:08:29;;;;;;;12.10;10.90;;;;;;;12.12;46.99;101437.53;6186461;28;20222;-52
2021/04/21 06:12:04;;;;;;;12.07;10.87;;;;;;;12.03;46.72;101438.44;6182312;28;20931;-52
2021/04/21 06:15:27;;;;;;;12.70;11.33;;;;;;;12.25;46.03;101440.94;6187920;28;20225;-57
2021/04/21 06:18:55;;;;;;;16.00;11.17;;;;;;;12.39;45.96;101431.28;6189708;28;20538;-56
2021/04/21 06:22:26;;;;;;;14.80;12.67;;;;;;;12.65;45.32;101432.81;6173589;28;20230;-55
2021/04/21 06:25:49;;;;;;;13.57;12.20;;;;;;;12.65;45.12;101438.91;6177762;28;20226;-54
2021/04/21 06:29:10;;;;;;;11.73;10.47;;;;;;;13.00;44.84;101442.97;6178715;28;20233;-55
2021/04/21 06:32:30;;;;;;;12.53;9.50;;;;;;;12.96;45.81;101433.44;6184933;28;20237;-56
2021/04/21 06:35:56;;;;;;;18.00;10.90;;;;;;;12.79;45.64;101441.41;6167443;28;20226;-56
2021/04/21 06:39:20;;;;;;;12.57;9.97;;;;;;;13.19;45.75;101431.44;6183916;28;20241;-55
2021/04/21 06:42:41;;;;;;;14.43;11.53;;;;;;;13.51;44.62;101439.88;6182612;28;20513;-58
2021/04/21 06:46:07;;;;;;;12.90;11.10;;;;;;;13.47;44.85;101441.66;6186706;28;20848;-54
2021/04/21 06:49:27;;;;;;;12.03;10.63;;;;;;;13.66;43.06;101441.44;6183011;28;20744;-56
2021/04/21 06:52:49;;;;;;;12.80;10.83;;;;;;;13.74;43.21;101440.47;6179568;28;20225;-54
2021/04/21 06:56:10;;;;;;;13.20;11.73;;;;;;;13.91;42.86;101450.72;6185960;28;20245;-55
2021/04/21 06:59:31;;;;;;;13.33;9.50;;;;;;;13.37;43.46;101445.25;6189600;28;20230;-56
2021/04/21 07:02:53;;;;;;;12.33;10.87;;;;;;;13.56;43.02;101452.03;6182412;28;20245;-54
2021/04/21 07:06:14;;;;;;;13.17;11.27;;;;;;;13.75;43.36;101446.59;6187358;28;20249;-55
2021/04/21 07:09:36;;;;;;;18.20;11.13;;;;;;;13.94;42.70;101448.09;6179285;28;20624;-55
2021/04/21 07:12:57;;;;;;;13.97;10.30;;;;;;;13.84;43.18;101446.47;6184351;28;20234;-56
2021/04/21 07:16:19;;;;;;;12.50;11.13;;;;;;;14.20;42.50;101452.09;6184290;28;20222;-55
2021/04/21 07:19:40;;;;;;;11.43;10.00;;;;;;;13.98;43.00;101455.00;6183027;28;20230;-52
2021/04/21 07:23:01;;;;;;;14.27;12.13;;;;;;;13.95;42.90;101455.03;6190429;28;20233;-57
2021/04/21 07:26:29;;;;;;;10.93;9.80;;;;;;;14.07;43.01;101453.16;6182535;28;20234;-51
2021/04/21 07:29:49;;;;;;;13.50;10.70;;;;;;;14.32;42.88;101457.16;6182572;28;20245;-55
2021/04/21 07:33:10;;;;;;;12.23;10.63;;;;;;;13.92;44.25;101449.84;6172623;28;20230;-54
2021/04/21 07:36:43;;;;;;;11.37;10.33;;;;;;;14.47;43.05;101457.84;6181921;28;20241;-54
2021/04/21 07:40:36;;;;;;;14.10;10.60;;;;;;;14.24;44.37;101453.78;6188853;28;20238;-52
2021/04/21 07:43:57;;;;;;;11.90;10.73;;;;;;;14.46;44.39;101451.75;6183370;28;20237;-53
2021/04/21 07:47:18;;;;;;;13.90;11.57;;;;;;;14.05;46.10;101449.69;6180997;28;20234;-51
2021/04/21 07:50:39;;;;;;;11.67;10.47;;;;;;;14.25;46.45;101452.91;6180265;28;20234;-52
2021/04/21 07:54:02;;;;;;;12.70;11.50;;;;;;;14.98;44.57;101455.28;6178313;28;20233;-51
2021/04/21 07:57:23;;;;;;;13.63;12.20;;;;;;;14.79;45.33;101464.34;6183015;28;20234;-53
2021/04/21 08:00:45;;;;;;;15.63;12.73;;;;;;;14.51;45.30;101470.84;6182212;28;20236;-57
2021/04/21 08:04:14;;;;;;;17.57;12.10;;;;;;;14.36;45.92;101477.22;6194850;28;20238;-57
2021/04/21 08:07:39;;;;;;;13.87;12.60;;;;;;;14.63;45.36;101467.22;6186333;28;20245;-54
2021/04/21 08:11:00;;;;;;;16.00;14.40;;;;;;;14.66;45.66;101474.19;6187023;28;20599;-57
2021/04/21 08:14:36;;;;;;;15.63;13.73;;;;;;;15.02;45.55;101475.31;6186100;28;20242;-55
2021/04/21 08:17:59;;;;;;;20.73;16.20;;;;;;;14.76;45.96;101479.25;6185481;28;20356;-56
2021/04/21 08:21:33;;;;;;;16.57;14.80;;;;;;;14.74;45.64;101478.41;6184467;28;20234;-55
2021/04/21 08:24:55;;;;;;;16.87;15.17;;;;;;;14.75;46.16;101474.91;6184626;28;20823;-51
2021/04/21 08:28:16;;;;;;;19.23;17.20;;;;;;;15.12;46.35;101479.53;6182459;28;20811;-54
2021/04/21 08:31:37;;;;;;;18.93;16.47;;;;;;;15.22;46.12;101488.09;6186736;28;20999;-55
2021/04/21 08:34:58;;;;;;;19.70;17.70;;;;;;;15.41;46.26;101479.88;6179549;28;20234;-51
2021/04/21 08:38:18;;;;;;;20.20;17.97;;;;;;;14.93;47.33;101499.09;6184163;28;20257;-55
2021/04/21 08:41:40;;;;;;;20.90;18.67;;;;;;;14.95;48.30;101495.56;6180322;28;20230;-56
2021/04/21 08:45:01;;;;;;;23.17;20.20;;;;;;;14.62;49.07;101514.41;6179899;28;20234;-53
2021/04/21 08:48:23;;;;;;;24.70;21.63;;;;;;;13.96;50.84;101524.88;6180044;28;20233;-54
2021/04/21 08:51:46;;;;;;;24.03;21.03;;;;;;;14.27;50.42;101523.59;6174807;28;20226;-52
2021/04/21 08:55:08;;;;;;;23.40;21.17;;;;;;;14.13;50.63;101529.91;6181044;28;20242;-56
2021/04/21 08:58:29;;;;;;;25.30;22.73;;;;;;;13.86;51.52;101523.25;6183814;28;20237;-53
2021/04/21 09:01:49;;;;;;;26.40;22.37;;;;;;;13.74;51.71;101528.59;6176823;28;20234;-54
2021/04/21 09:05:12;;;;;;;28.27;25.43;;;;;;;13.50;52.14;101525.34;6180787;28;20271;-56
2021/04/21 09:08:34;;;;;;;31.93;27.73;;;;;;;13.64;52.13;101521.75;6187659;28;20246;-51
2021/04/21 09:11:55;;;;;;;29.83;26.63;;;;;;;13.58;52.24;101526.16;6177646;28;20221;-54
2021/04/21 09:15:17;;;;;;;29.80;26.53;;;;;;;13.87;51.85;101518.88;6163305;28;20229;-55
2021/04/21 09:18:38;;;;;;;28.43;25.43;;;;;;;13.86;51.68;101527.59;6181198;28;20313;-53
2021/04/21 09:22:04;;;;;;;31.00;27.43;;;;;;;14.57;50.01;101532.84;6184339;28;20242;-51
2021/04/21 09:25:31;;;;;;;27.23;24.33;;;;;;;14.53;50.19;101529.34;6180836;28;20241;-57
2021/04/21 09:28:54;;;;;;;27.13;24.47;;;;;;;14.71;49.69;101525.66;6187265;28;20234;-57
2021/04/21 09:32:14;;;;;;;27.07;24.27;;;;;;;14.03;51.03;101530.03;6175443;28;20222;-52
2021/04/21 09:35:38;;;;;;;29.10;21.47;;;;;;;14.63;49.17;101530.13;6184749;28;20237;-55
2021/04/21 09:39:07;;;;;;;23.77;19.83;;;;;;;14.13;49.80;101526.41;6183946;28;20241;-55
2021/04/21 09:42:29;;;;;;;21.80;19.13;;;;;;;13.72;51.24;101526.00;6184069;28;20233;-56
2021/04/21 09:45:51;;;;;;;21.30;19.13;;;;;;;13.90;50.57;101535.41;6185019;28;20230;-51
2021/04/21 09:49:30;;;;;;;26.03;21.23;;;;;;;13.80;50.93;101523.28;6172444;28;20266;-53
2021/04/21 09:52:51;;;;;;;21.73;18.83;;;;;;;13.82;50.73;101518.91;6191825;28;20238;-54
2021/04/21 09:56:15;;;;;;;21.17;18.83;;;;;;;13.86;50.75;101522.34;6183636;28;20246;-55
2021/04/21 09:59:38;;;;;;;22.33;19.03;;;;;;;13.56;51.56;101509.59;6187904;28;20599;-55
2021/04/21 10:03:15;;;;;;;22.00;19.27;;;;;;;13.45;51.84;101521.06;6186891;28;20234;-52
2021/04/21 10:06:36;;;;;;;18.30;16.30;;;;;;;13.83;50.89;101519.78;6177292;28;20318;-55
2021/04/21 10:09:57;;;;;;;19.20;17.20;;;;;;;13.85;50.49;101508.41;6182513;28;20237;-55
2021/04/21 10:13:20;;;;;;;19.37;17.17;;;;;;;13.64;50.57;101513.88;6176751;28;20234;-52
2021/04/21 10:16:42;;;;;;;18.60;16.20;;;;;;;13.89;49.78;101520.56;6179949;28;20241;-52
2021/04/21 10:20:04;;;;;;;17.63;15.70;;;;;;;13.88;50.10;101523.22;6183596;28;20230;-55
2021/04/21 10:23:25;;;;;;;20.80;17.87;;;;;;;13.55;50.88;101523.56;6187707;28;20240;-56
2021/04/21 10:26:46;;;;;;;15.77;14.30;;;;;;;13.29;50.71;101525.53;6186110;28;20515;-54
2021/04/21 10:30:09;;;;;;;16.57;13.73;;;;;;;14.27;49.26;101528.84;6173404;28;20608;-52
2021/04/21 10:33:31;;;;;;;15.83;11.73;;;;;;;13.78;49.13;101525.06;6182549;28;20747;-52
2021/04/21 10:36:52;;;;;;;13.10;11.80;;;;;;;13.93;48.93;101521.41;6189094;28;20229;-55
2021/04/21 10:40:23;;;;;;;19.87;17.87;;;;;;;13.56;50.26;101525.28;6188199;28;20234;-54
2021/04/21 10:43:44;;;;;;;13.53;10.13;;;;;;;13.84;49.18;101534.59;6188117;28;20237;-52
2021/04/21 10:47:08;;;;;;;8.80;7.90;;;;;;;14.29;48.03;101533.19;6185609;28;20324;-53
2021/04/21 10:50:38;;;;;;;8.83;7.93;;;;;;;14.21;47.40;101534.16;6184993;28;20230;-53
2021/04/21 10:54:04;;;;;;;8.23;7.43;;;;;;;14.36;47.10;101533.97;6184642;28;20470;-55
2021/04/21 10:57:33;;;;;;;8.77;7.60;;;;;;;14.96;45.23;101541.00;6186969;28;20225;-55
2021/04/21 11:00:54;;;;;;;6.87;5.80;;;;;;;15.91;43.06;101523.56;6182961;28;20226;-54
2021/04/21 11:04:15;;;;;;;7.17;5.97;;;;;;;16.83;40.17;101530.41;6182116;28;20234;-58
2021/04/21 11:07:37;;;;;;;5.87;4.60;;;;;;;17.01;39.96;101522.03;6178108;28;20257;-55
2021/04/21 11:11:02;;;;;;;5.47;4.77;;;;;;;16.88;39.96;101523.25;6184165;28;20217;-57
2021/04/21 11:14:52;;;;;;;6.60;3.50;;;;;;;16.19;40.48;101522.13;6179310;28;20237;-53
2021/04/21 11:18:23;;;;;;;4.43;3.67;;;;;;;15.43;41.29;101531.47;6181535;28;20356;-55
2021/04/21 11:21:44;;;;;;;3.83;3.07;;;;;;;15.66;41.52;101523.16;6184123;28;20229;-55
2021/04/21 11:25:27;;;;;;;7.97;3.80;;;;;;;16.62;37.44;101527.31;6183481;28;20249;-56
2021/04/21 11:28:54;;;;;;;3.93;3.30;;;;;;;16.49;37.54;101525.88;6183585;28;20225;-55
2021/04/21 11:32:16;;;;;;;4.73;3.13;;;;;;;16.65;37.23;101531.63;6177279;28;20230;-57
2021/04/21 11:35:37;;;;;;;6.23;2.87;;;;;;;16.89;36.73;101514.47;6182861;28;20332;-54
2021/04/21 11:38:57;;;;;;;2.57;2.37;;;;;;;16.09;38.63;101514.47;6183907;28;20230;-56
2021/04/21 11:42:21;;;;;;;2.40;2.20;;;;;;;15.42;39.64;101529.72;6180110;28;20301;-55
2021/04/21 11:45:43;;;;;;;6.00;2.33;;;;;;;15.29;39.88;101529.06;6181061;28;20241;-56
2021/04/21 11:49:03;;;;;;;8.60;3.33;;;;;;;14.73;40.23;101537.00;6185540;28;20229;-52
2021/04/21 11:52:43;;;;;;;4.70;2.07;;;;;;;15.75;37.60;101522.16;6183301;28;20262;-55
2021/04/21 11:56:06;;;;;;;4.27;2.00;;;;;;;16.83;35.57;101522.50;6181140;28;20637;-56
2021/04/21 11:59:29;;;;;;;7.40;2.93;;;;;;;16.79;34.42;101519.06;6180248;28;20234;-54
2021/04/21 12:02:50;;;;;;;11.13;2.93;;;;;;;16.51;35.35;101514.41;6179593;28;20309;-56
2021/04/21 12:06:13;;;;;;;6.40;1.90;;;;;;;16.17;35.33;101514.31;6166306;28;20234;-56
2021/04/21 12:09:35;;;;;;;6.03;2.00;;;;;;;16.09;35.48;101505.69;6178289;28;20241;-56
2021/04/21 12:13:10;;;;;;;6.20;2.00;;;;;;;17.94;32.47;101514.38;6186002;28;20241;-55
2021/04/21 12:16:34;;;;;;;8.73;4.00;;;;;;;18.51;31.74;101529.34;6178902;28;20269;-54
2021/04/21 12:19:57;;;;;;;5.20;2.57;;;;;;;21.23;26.27;101519.50;6182643;28;20253;-57
2021/04/21 12:23:32;;;;;;;4.18;2.08;;;;;;;19.95;27.37;101506.94;6182041;28;20614;-55
2021/04/21 12:26:53;;;;;;;8.02;2.47;;;;;;;19.00;29.29;101519.91;6182312;28;20309;-51
2021/04/21 12:30:17;;;;;;;8.65;2.67;;;;;;;22.21;24.91;101529.31;6177773;28;20238;-54
2021/04/21 12:33:39;;;;;;;3.33;1.80;;;;;;;22.83;23.40;101524.59;6180469;28;20750;-53
2021/04/21 12:37:00;;;;;;;11.82;3.28;;;;;;;21.06;24.59;101518.50;6184160;28;20229;-55
2021/04/21 12:40:23;;;;;;;4.82;2.03;;;;;;;21.24;24.01;101533.59;6182382;28;20225;-53
2021/04/21 12:43:44;;;;;;;4.25;2.90;;;;;;;19.45;25.93;101535.09;6181127;28;20234;-56
2021/04/21 12:47:06;;;;;;;5.57;1.95;;;;;;;17.86;26.31;101536.53;6181580;28;20230;-56
2021/04/21 12:50:32;;;;;;;8.80;2.40;;;;;;;15.58;30.73;101530.31;6178970;28;20242;-54
2021/04/21 12:53:52;;;;;;;2.97;2.25;;;;;;;19.18;26.44;101517.56;6181904;28;20233;-56
2021/04/21 12:57:14;;;;;;;7.68;2.22;;;;;;;17.57;28.63;101526.75;6161496;28;20257;-54
2021/04/21 13:00:35;;;;;;;4.35;2.30;;;;;;;21.55;22.61;101521.69;6183310;28;20238;-52
2021/04/21 13:03:58;;;;;;;11.63;2.72;;;;;;;21.21;22.31;101521.34;6186427;28;20249;-56
2021/04/21 13:07:22;;;;;;;9.30;3.10;;;;;;;22.99;20.75;101509.66;6181557;28;20369;-54
2021/04/21 13:10:43;;;;;;;8.32;2.63;;;;;;;19.95;23.75;101512.22;6184824;28;20260;-55
2021/04/21 13:14:05;;;;;;;6.03;2.72;;;;;;;21.24;21.86;101512.41;6180646;28;20237;-54
2021/04/21 13:17:25;;;;;;;7.95;2.50;;;;;;;23.07;19.13;101537.63;6184180;28;20249;-57
2021/04/21 13:20:49;;;;;;;6.80;2.97;;;;;;;23.89;18.17;101519.22;6182218;28;20230;-53
2021/04/21 13:24:13;;;;;;;9.27;2.72;;;;;;;23.26;18.03;101503.03;6180222;28;20225;-56
2021/04/21 13:27:35;;;;;;;4.85;2.38;;;;;;;24.60;17.64;101499.34;6182800;28;20235;-51
2021/04/21 13:31:15;;;;;;;5.30;2.45;;;;;;;23.27;18.46;101510.94;6181389;28;20970;-54
2021/04/21 13:34:37;;;;;;;9.45;3.17;;;;;;;21.68;21.35;101514.09;6178807;28;20238;-56
2021/04/21 13:37:57;;;;;;;7.28;2.47;;;;;;;23.63;19.20;101493.97;6183913;28;20316;-55
2021/04/21 13:41:19;;;;;;;7.60;3.45;;;;;;;24.57;18.15;101502.19;6178762;28;20250;-55
2021/04/21 13:44:40;;;;;;;7.13;2.60;;;;;;;23.04;20.07;101503.28;6183716;28;21749;-55
2021/04/21 13:48:00;;;;;;;7.97;3.17;;;;;;;23.35;20.11;101479.50;6185503;28;20241;-55
2021/04/21 13:51:20;;;;;;;5.68;2.40;;;;;;;19.04;24.08;101516.25;6182657;28;20238;-54
2021/04/21 13:54:43;;;;;;;5.03;2.75;;;;;;;18.48;26.40;101534.72;6179332;28;20237;-51
2021/04/21 13:58:05;;;;;;;11.48;3.22;;;;;;;19.50;23.64;101518.22;6186405;28;20238;-48
2021/04/21 14:01:25;;;;;;;4.20;2.10;;;;;;;20.78;22.75;101504.59;6173431;28;20238;-52
2021/04/21 14:04:46;;;;;;;5.97;1.98;;;;;;;21.85;21.90;101502.69;6176202;28;20627;-52
2021/04/21 14:08:07;;;;;;;5.72;2.60;;;;;;;21.80;24.45;101509.06;6173271;28;20628;-51
2021/04/21 14:11:27;;;;;;;9.45;3.13;;;;;;;21.34;21.67;101500.47;6177304;28;20234;-53
2021/04/21 14:14:49;;;;;;;4.20;2.17;;;;;;;20.60;23.17;101507.97;6186825;28;20252;-55
2021/04/21 14:18:09;;;;;;;8.65;3.13;;;;;;;18.30;25.73;101505.38;6183411;28;20238;-54
2021/04/21 14:21:30;;;;;;;8.43;3.50;;;;;;;17.24;27.84;101515.34;6189519;28;20246;-53
2021/04/21 14:24:50;;;;;;;7.30;2.17;;;;;;;17.67;26.39;101512.41;6174438;28;20227;-52
2021/04/21 14:28:10;;;;;;;8.33;3.53;;;;;;;18.82;25.37;101523.13;6191611;28;20320;-52
2021/04/21 14:31:31;;;;;;;7.10;2.47;;;;;;;17.59;26.73;101508.28;6183974;28;20227;-54
2021/04/21 14:34:52;;;;;;;3.73;1.83;;;;;;;16.95;28.04;101527.47;6191784;28;20250;-49
2021/04/21 14:38:13;;;;;;;4.17;2.00;;;;;;;16.78;28.59;101534.88;6183783;28;20241;-52
2021/04/21 14:41:35;;;;;;;5.20;2.33;;;;;;;15.77;31.20;101533.50;6184033;28;20234;-47
2021/04/21 14:44:56;;;;;;;7.07;2.80;;;;;;;16.38;29.39;101525.25;6186173;28;20242;-54
2021/04/21 14:48:17;;;;;;;6.70;1.73;;;;;;;17.25;28.14;101510.06;6178122;28;20238;-53
2021/04/21 14:51:38;;;;;;;5.60;1.53;;;;;;;15.63;30.72;101511.88;6180294;28;20329;-51
2021/04/21 14:54:59;;;;;;;7.10;2.00;;;;;;;16.18;29.70;101515.16;6177709;28;20246;-51
2021/04/21 14:58:19;;;;;;;2.70;1.30;;;;;;;15.54;29.97;101531.25;6178968;28;20231;-50
2021/04/21 15:01:40;;;;;;;4.70;1.50;;;;;;;15.99;28.40;101528.66;6178959;28;20237;-51
2021/04/21 15:05:01;;;;;;;4.27;2.17;;;;;;;17.13;27.76;101529.63;6173371;28;20233;-49
2021/04/21 15:08:22;;;;;;;6.83;1.87;;;;;;;17.28;27.50;101527.53;6182271;28;20697;-52
2021/04/21 15:11:43;;;;;;;2.43;1.63;;;;;;;17.26;27.45;101534.59;6185643;28;20235;-52
2021/04/21 15:15:05;;;;;;;6.27;1.87;;;;;;;15.51;29.15;101555.81;6186245;28;20241;-48
2021/04/21 15:18:27;;;;;;;4.03;1.30;;;;;;;16.62;30.65;101544.88;6178692;28;20221;-55
2021/04/21 15:21:48;;;;;;;3.93;1.90;;;;;;;15.74;31.49;101536.16;6179917;28;20238;-53
2021/04/21 15:25:10;;;;;;;5.87;1.80;;;;;;;16.09;30.65;101558.25;6188143;28;20238;-54
2021/04/21 15:28:30;;;;;;;2.20;1.13;;;;;;;15.87;30.86;101540.28;6189431;28;20233;-54
2021/04/21 15:31:58;;;;;;;7.37;1.93;;;;;;;16.38;33.94;101538.38;6185713;28;20317;-51
2021/04/21 15:35:18;;;;;;;7.87;1.57;;;;;;;16.30;32.26;101539.44;6181525;28;20337;-56
2021/04/21 15:38:44;;;;;;;7.40;2.20;;;;;;;14.93;32.45;101562.03;6187794;28;20233;-53
2021/04/21 15:42:04;;;;;;;5.37;1.80;;;;;;;13.52;34.05;101554.13;6188669;28;20234;-51
2021/04/21 15:45:27;;;;;;;6.97;2.63;;;;;;;14.24;32.22;101550.72;6165792;28;20727;-54
2021/04/21 15:48:48;;;;;;;4.83;1.57;;;;;;;14.55;33.12;101572.13;6181046;28;20233;-54